sensor_id;sensor_type;location;lat;lon;timestamp;P1;durP1;ratioP1;P2;durP2;ratioP2
11039;SDS011;5573;49.592;8.662;2024-03-08T00:00:13;31.80;;;30.10;;
11039;SDS011;5573;49.592;8.662;2024-03-08T00:02:43;28.93;;;27.43;;
11039;SDS011;5573;49.592;8.662;2024-03-08T00:05:12;33.50;;;31.70;;
11039;SDS011;5573;49.592;8.662;2024-03-08T00:07:42;32.27;;;30.53;;
11039;SDS011;5573;49.592;8.662;2024-03-08T00:10:11;31.13;;;29.47;;
11039;SDS011;5573;49.592;8.662;2024-03-08T00:12:42;31.27;;;29.50;;
11039;SDS011;5573;49.592;8.662;2024-03-08T00:15:14;30.23;;;28.53;;
11039;SDS011;5573;49.592;8.662;2024-03-08T00:17:45;31.23;;;29.53;;
11039;SDS011;5573;49.592;8.662;2024-03-08T00:20:14;31.23;;;29.53;;
11039;SDS011;5573;49.592;8.662;2024-03-08T00:22:44;28.50;;;27.03;;
11039;SDS011;5573;49.592;8.662;2024-03-08T00:25:12;31.97;;;30.17;;
11039;SDS011;5573;49.592;8.662;2024-03-08T00:27:40;27.30;;;25.80;;
11039;SDS011;5573;49.592;8.662;2024-03-08T00:30:10;29.07;;;27.10;;
11039;SDS011;5573;49.592;8.662;2024-03-08T00:32:39;28.97;;;27.30;;
11039;SDS011;5573;49.592;8.662;2024-03-08T00:35:07;28.77;;;27.20;;
11039;SDS011;5573;49.592;8.662;2024-03-08T00:37:35;29.40;;;27.70;;
11039;SDS011;5573;49.592;8.662;2024-03-08T00:40:04;27.43;;;25.97;;
11039;SDS011;5573;49.592;8.662;2024-03-08T00:42:35;28.53;;;27.00;;
11039;SDS011;5573;49.592;8.662;2024-03-08T00:45:04;26.20;;;24.83;;
11039;SDS011;5573;49.592;8.662;2024-03-08T00:47:34;27.20;;;25.77;;
11039;SDS011;5573;49.592;8.662;2024-03-08T00:50:02;28.57;;;27.07;;
11039;SDS011;5573;49.592;8.662;2024-03-08T00:52:31;25.97;;;24.47;;
11039;SDS011;5573;49.592;8.662;2024-03-08T00:55:01;24.77;;;23.47;;
11039;SDS011;5573;49.592;8.662;2024-03-08T00:57:29;25.60;;;23.90;;
11039;SDS011;5573;49.592;8.662;2024-03-08T00:59:57;23.73;;;22.27;;
11039;SDS011;5573;49.592;8.662;2024-03-08T01:02:25;25.00;;;23.67;;
11039;SDS011;5573;49.592;8.662;2024-03-08T01:04:54;25.47;;;23.97;;
11039;SDS011;5573;49.592;8.662;2024-03-08T01:07:22;24.07;;;22.73;;
11039;SDS011;5573;49.592;8.662;2024-03-08T01:09:49;24.43;;;23.03;;
11039;SDS011;5573;49.592;8.662;2024-03-08T01:12:17;24.40;;;23.10;;
11039;SDS011;5573;49.592;8.662;2024-03-08T01:14:46;24.23;;;22.83;;
11039;SDS011;5573;49.592;8.662;2024-03-08T01:17:14;22.63;;;21.43;;
11039;SDS011;5573;49.592;8.662;2024-03-08T01:19:42;22.97;;;21.70;;
11039;SDS011;5573;49.592;8.662;2024-03-08T01:22:12;23.70;;;22.30;;
11039;SDS011;5573;49.592;8.662;2024-03-08T01:24:40;23.30;;;21.87;;
11039;SDS011;5573;49.592;8.662;2024-03-08T01:27:09;24.73;;;23.30;;
11039;SDS011;5573;49.592;8.662;2024-03-08T01:29:36;24.37;;;23.07;;
11039;SDS011;5573;49.592;8.662;2024-03-08T01:32:04;24.60;;;23.20;;
11039;SDS011;5573;49.592;8.662;2024-03-08T01:34:32;22.97;;;21.70;;
11039;SDS011;5573;49.592;8.662;2024-03-08T01:37:00;23.50;;;22.17;;
11039;SDS011;5573;49.592;8.662;2024-03-08T01:39:29;23.67;;;22.30;;
11039;SDS011;5573;49.592;8.662;2024-03-08T01:41:59;20.83;;;19.73;;
11039;SDS011;5573;49.592;8.662;2024-03-08T01:44:27;21.30;;;20.17;;
11039;SDS011;5573;49.592;8.662;2024-03-08T01:46:56;21.50;;;20.37;;
11039;SDS011;5573;49.592;8.662;2024-03-08T01:49:25;20.80;;;19.60;;
11039;SDS011;5573;49.592;8.662;2024-03-08T01:51:54;21.53;;;20.23;;
11039;SDS011;5573;49.592;8.662;2024-03-08T01:54:23;20.00;;;18.80;;
11039;SDS011;5573;49.592;8.662;2024-03-08T01:56:53;24.20;;;22.83;;
11039;SDS011;5573;49.592;8.662;2024-03-08T01:59:21;21.77;;;20.60;;
11039;SDS011;5573;49.592;8.662;2024-03-08T02:01:49;20.27;;;19.17;;
11039;SDS011;5573;49.592;8.662;2024-03-08T02:04:18;21.17;;;19.97;;
11039;SDS011;5573;49.592;8.662;2024-03-08T02:06:47;19.03;;;18.00;;
11039;SDS011;5573;49.592;8.662;2024-03-08T02:09:15;19.80;;;18.70;;
11039;SDS011;5573;49.592;8.662;2024-03-08T02:11:43;19.80;;;18.67;;
11039;SDS011;5573;49.592;8.662;2024-03-08T02:14:14;18.63;;;17.67;;
11039;SDS011;5573;49.592;8.662;2024-03-08T02:16:41;17.43;;;16.47;;
11039;SDS011;5573;49.592;8.662;2024-03-08T02:19:09;16.63;;;15.77;;
11039;SDS011;5573;49.592;8.662;2024-03-08T02:21:38;18.23;;;17.30;;
11039;SDS011;5573;49.592;8.662;2024-03-08T02:24:06;17.67;;;16.67;;
11039;SDS011;5573;49.592;8.662;2024-03-08T02:26:34;17.90;;;17.00;;
11039;SDS011;5573;49.592;8.662;2024-03-08T02:29:02;18.17;;;17.17;;
11039;SDS011;5573;49.592;8.662;2024-03-08T02:31:31;17.27;;;16.27;;
11039;SDS011;5573;49.592;8.662;2024-03-08T02:33:59;17.43;;;16.43;;
11039;SDS011;5573;49.592;8.662;2024-03-08T02:36:27;18.70;;;17.50;;
11039;SDS011;5573;49.592;8.662;2024-03-08T02:38:56;18.77;;;17.67;;
11039;SDS011;5573;49.592;8.662;2024-03-08T02:41:24;16.23;;;15.40;;
11039;SDS011;5573;49.592;8.662;2024-03-08T02:43:52;17.07;;;16.17;;
11039;SDS011;5573;49.592;8.662;2024-03-08T02:46:22;18.27;;;17.27;;
11039;SDS011;5573;49.592;8.662;2024-03-08T02:48:49;16.93;;;16.00;;
11039;SDS011;5573;49.592;8.662;2024-03-08T02:51:18;16.27;;;15.37;;
11039;SDS011;5573;49.592;8.662;2024-03-08T02:53:46;15.37;;;14.53;;
11039;SDS011;5573;49.592;8.662;2024-03-08T02:56:19;16.17;;;15.30;;
11039;SDS011;5573;49.592;8.662;2024-03-08T02:58:48;15.07;;;14.27;;
11039;SDS011;5573;49.592;8.662;2024-03-08T03:01:16;15.57;;;14.70;;
11039;SDS011;5573;49.592;8.662;2024-03-08T03:03:46;15.83;;;15.03;;
11039;SDS011;5573;49.592;8.662;2024-03-08T03:06:14;16.37;;;15.50;;
11039;SDS011;5573;49.592;8.662;2024-03-08T03:08:42;14.23;;;13.43;;
11039;SDS011;5573;49.592;8.662;2024-03-08T03:11:12;14.53;;;13.73;;
11039;SDS011;5573;49.592;8.662;2024-03-08T03:13:42;14.33;;;13.53;;
11039;SDS011;5573;49.592;8.662;2024-03-08T03:16:17;15.50;;;14.67;;
11039;SDS011;5573;49.592;8.662;2024-03-08T03:18:46;16.13;;;14.93;;
11039;SDS011;5573;49.592;8.662;2024-03-08T03:21:14;15.87;;;15.03;;
11039;SDS011;5573;49.592;8.662;2024-03-08T03:23:43;15.63;;;14.73;;
11039;SDS011;5573;49.592;8.662;2024-03-08T03:26:11;16.27;;;15.27;;
11039;SDS011;5573;49.592;8.662;2024-03-08T03:28:39;17.20;;;16.20;;
11039;SDS011;5573;49.592;8.662;2024-03-08T03:31:08;16.40;;;15.53;;
11039;SDS011;5573;49.592;8.662;2024-03-08T03:33:40;15.90;;;14.90;;
11039;SDS011;5573;49.592;8.662;2024-03-08T03:36:08;16.33;;;15.33;;
11039;SDS011;5573;49.592;8.662;2024-03-08T03:38:37;16.17;;;15.27;;
11039;SDS011;5573;49.592;8.662;2024-03-08T03:41:05;16.27;;;15.27;;
11039;SDS011;5573;49.592;8.662;2024-03-08T03:43:38;15.73;;;14.83;;
11039;SDS011;5573;49.592;8.662;2024-03-08T03:46:06;15.77;;;14.87;;
11039;SDS011;5573;49.592;8.662;2024-03-08T03:48:35;17.77;;;16.77;;
11039;SDS011;5573;49.592;8.662;2024-03-08T03:51:04;15.40;;;14.57;;
11039;SDS011;5573;49.592;8.662;2024-03-08T03:53:31;15.23;;;14.33;;
11039;SDS011;5573;49.592;8.662;2024-03-08T03:55:59;14.77;;;13.93;;
11039;SDS011;5573;49.592;8.662;2024-03-08T03:58:27;14.60;;;13.83;;
11039;SDS011;5573;49.592;8.662;2024-03-08T04:00:55;13.93;;;13.23;;
11039;SDS011;5573;49.592;8.662;2024-03-08T04:03:23;13.30;;;12.60;;
11039;SDS011;5573;49.592;8.662;2024-03-08T04:05:52;15.13;;;14.03;;
11039;SDS011;5573;49.592;8.662;2024-03-08T04:08:20;13.97;;;13.23;;
11039;SDS011;5573;49.592;8.662;2024-03-08T04:10:49;13.57;;;12.67;;
11039;SDS011;5573;49.592;8.662;2024-03-08T04:13:17;14.27;;;13.53;;
11039;SDS011;5573;49.592;8.662;2024-03-08T04:15:46;13.70;;;12.90;;
11039;SDS011;5573;49.592;8.662;2024-03-08T04:18:15;13.23;;;12.43;;
11039;SDS011;5573;49.592;8.662;2024-03-08T04:20:44;12.93;;;12.13;;
11039;SDS011;5573;49.592;8.662;2024-03-08T04:23:14;13.80;;;13.07;;
11039;SDS011;5573;49.592;8.662;2024-03-08T04:25:42;14.33;;;13.53;;
11039;SDS011;5573;49.592;8.662;2024-03-08T04:28:10;13.70;;;12.77;;
11039;SDS011;5573;49.592;8.662;2024-03-08T04:30:38;14.70;;;13.80;;
11039;SDS011;5573;49.592;8.662;2024-03-08T04:33:06;13.30;;;12.50;;
11039;SDS011;5573;49.592;8.662;2024-03-08T04:35:35;15.43;;;14.53;;
11039;SDS011;5573;49.592;8.662;2024-03-08T04:38:03;14.63;;;13.73;;
11039;SDS011;5573;49.592;8.662;2024-03-08T04:40:33;14.60;;;13.77;;
11039;SDS011;5573;49.592;8.662;2024-03-08T04:43:02;13.87;;;13.10;;
11039;SDS011;5573;49.592;8.662;2024-03-08T04:45:29;15.03;;;14.13;;
11039;SDS011;5573;49.592;8.662;2024-03-08T04:47:57;14.23;;;13.03;;
11039;SDS011;5573;49.592;8.662;2024-03-08T04:50:25;13.67;;;12.83;;
11039;SDS011;5573;49.592;8.662;2024-03-08T04:52:55;13.00;;;12.33;;
11039;SDS011;5573;49.592;8.662;2024-03-08T04:55:24;14.40;;;13.47;;
11039;SDS011;5573;49.592;8.662;2024-03-08T04:57:53;13.93;;;13.17;;
11039;SDS011;5573;49.592;8.662;2024-03-08T05:00:21;14.47;;;13.70;;
11039;SDS011;5573;49.592;8.662;2024-03-08T05:02:49;14.77;;;13.97;;
11039;SDS011;5573;49.592;8.662;2024-03-08T05:05:20;14.70;;;13.83;;
11039;SDS011;5573;49.592;8.662;2024-03-08T05:07:49;14.77;;;13.97;;
11039;SDS011;5573;49.592;8.662;2024-03-08T05:10:17;14.43;;;13.53;;
11039;SDS011;5573;49.592;8.662;2024-03-08T05:12:44;13.97;;;13.20;;
11039;SDS011;5573;49.592;8.662;2024-03-08T05:15:13;14.77;;;13.97;;
11039;SDS011;5573;49.592;8.662;2024-03-08T05:17:42;12.60;;;11.90;;
11039;SDS011;5573;49.592;8.662;2024-03-08T05:20:10;15.00;;;14.20;;
11039;SDS011;5573;49.592;8.662;2024-03-08T05:22:39;14.30;;;13.33;;
11039;SDS011;5573;49.592;8.662;2024-03-08T05:25:08;14.67;;;13.87;;
11039;SDS011;5573;49.592;8.662;2024-03-08T05:27:36;15.70;;;14.80;;
11039;SDS011;5573;49.592;8.662;2024-03-08T05:30:05;15.33;;;14.43;;
11039;SDS011;5573;49.592;8.662;2024-03-08T05:32:34;16.13;;;15.17;;
11039;SDS011;5573;49.592;8.662;2024-03-08T05:35:04;14.47;;;13.47;;
11039;SDS011;5573;49.592;8.662;2024-03-08T05:37:33;13.73;;;13.03;;
11039;SDS011;5573;49.592;8.662;2024-03-08T05:40:01;14.50;;;13.70;;
11039;SDS011;5573;49.592;8.662;2024-03-08T05:42:30;13.30;;;12.60;;
11039;SDS011;5573;49.592;8.662;2024-03-08T05:44:58;15.63;;;14.77;;
11039;SDS011;5573;49.592;8.662;2024-03-08T05:47:25;14.40;;;13.63;;
11039;SDS011;5573;49.592;8.662;2024-03-08T05:49:58;15.77;;;14.70;;
11039;SDS011;5573;49.592;8.662;2024-03-08T05:52:25;14.97;;;14.17;;
11039;SDS011;5573;49.592;8.662;2024-03-08T05:54:54;14.77;;;14.00;;
11039;SDS011;5573;49.592;8.662;2024-03-08T05:57:22;14.33;;;13.43;;
11039;SDS011;5573;49.592;8.662;2024-03-08T05:59:50;16.60;;;15.70;;
11039;SDS011;5573;49.592;8.662;2024-03-08T06:02:18;15.17;;;13.90;;
11039;SDS011;5573;49.592;8.662;2024-03-08T06:04:45;14.77;;;13.87;;
11039;SDS011;5573;49.592;8.662;2024-03-08T06:07:16;15.73;;;14.83;;
11039;SDS011;5573;49.592;8.662;2024-03-08T06:09:44;14.80;;;13.93;;
11039;SDS011;5573;49.592;8.662;2024-03-08T06:12:14;14.47;;;13.67;;
11039;SDS011;5573;49.592;8.662;2024-03-08T06:14:45;14.30;;;13.47;;
11039;SDS011;5573;49.592;8.662;2024-03-08T06:17:13;15.70;;;14.73;;
11039;SDS011;5573;49.592;8.662;2024-03-08T06:19:40;14.77;;;13.97;;
11039;SDS011;5573;49.592;8.662;2024-03-08T06:22:08;14.97;;;14.20;;
11039;SDS011;5573;49.592;8.662;2024-03-08T06:24:38;15.57;;;14.63;;
11039;SDS011;5573;49.592;8.662;2024-03-08T06:27:06;15.90;;;15.00;;
11039;SDS011;5573;49.592;8.662;2024-03-08T06:29:36;15.03;;;14.23;;
11039;SDS011;5573;49.592;8.662;2024-03-08T06:32:04;15.90;;;15.03;;
11039;SDS011;5573;49.592;8.662;2024-03-08T06:34:32;15.03;;;14.23;;
11039;SDS011;5573;49.592;8.662;2024-03-08T06:37:00;16.40;;;15.40;;
11039;SDS011;5573;49.592;8.662;2024-03-08T06:39:28;15.60;;;14.70;;
11039;SDS011;5573;49.592;8.662;2024-03-08T06:41:59;16.40;;;15.40;;
11039;SDS011;5573;49.592;8.662;2024-03-08T06:44:27;14.80;;;13.80;;
11039;SDS011;5573;49.592;8.662;2024-03-08T06:46:55;16.10;;;15.10;;
11039;SDS011;5573;49.592;8.662;2024-03-08T06:49:26;15.13;;;14.33;;
11039;SDS011;5573;49.592;8.662;2024-03-08T06:51:53;15.67;;;14.77;;
11039;SDS011;5573;49.592;8.662;2024-03-08T06:54:23;15.83;;;14.83;;
11039;SDS011;5573;49.592;8.662;2024-03-08T06:56:51;15.10;;;14.27;;
11039;SDS011;5573;49.592;8.662;2024-03-08T06:59:20;15.03;;;14.23;;
11039;SDS011;5573;49.592;8.662;2024-03-08T07:01:48;15.57;;;14.67;;
11039;SDS011;5573;49.592;8.662;2024-03-08T07:04:15;17.17;;;16.17;;
11039;SDS011;5573;49.592;8.662;2024-03-08T07:06:45;16.07;;;15.17;;
11039;SDS011;5573;49.592;8.662;2024-03-08T07:09:13;17.00;;;16.00;;
11039;SDS011;5573;49.592;8.662;2024-03-08T07:11:43;16.07;;;15.23;;
11039;SDS011;5573;49.592;8.662;2024-03-08T07:14:11;17.53;;;16.50;;
11039;SDS011;5573;49.592;8.662;2024-03-08T07:16:41;18.93;;;17.83;;
11039;SDS011;5573;49.592;8.662;2024-03-08T07:19:10;16.60;;;15.73;;
11039;SDS011;5573;49.592;8.662;2024-03-08T07:21:38;17.90;;;16.87;;
11039;SDS011;5573;49.592;8.662;2024-03-08T07:24:06;20.63;;;19.53;;
11039;SDS011;5573;49.592;8.662;2024-03-08T07:26:50;18.27;;;17.27;;
11039;SDS011;5573;49.592;8.662;2024-03-08T07:29:18;19.57;;;18.47;;
11039;SDS011;5573;49.592;8.662;2024-03-08T07:31:47;19.60;;;18.60;;
11039;SDS011;5573;49.592;8.662;2024-03-08T07:34:22;18.27;;;17.33;;
11039;SDS011;5573;49.592;8.662;2024-03-08T07:36:49;20.57;;;19.37;;
11039;SDS011;5573;49.592;8.662;2024-03-08T07:39:18;18.10;;;17.13;;
11039;SDS011;5573;49.592;8.662;2024-03-08T07:41:45;22.17;;;20.77;;
11039;SDS011;5573;49.592;8.662;2024-03-08T07:44:14;20.37;;;19.10;;
11039;SDS011;5573;49.592;8.662;2024-03-08T07:46:42;20.90;;;19.80;;
11039;SDS011;5573;49.592;8.662;2024-03-08T07:49:11;19.57;;;18.50;;
11039;SDS011;5573;49.592;8.662;2024-03-08T07:51:40;19.90;;;18.87;;
11039;SDS011;5573;49.592;8.662;2024-03-08T07:54:08;21.50;;;20.27;;
11039;SDS011;5573;49.592;8.662;2024-03-08T07:56:36;26.80;;;24.90;;
11039;SDS011;5573;49.592;8.662;2024-03-08T07:59:04;24.07;;;22.67;;
11039;SDS011;5573;49.592;8.662;2024-03-08T08:01:32;22.57;;;21.37;;
11039;SDS011;5573;49.592;8.662;2024-03-08T08:04:00;25.20;;;23.80;;
11039;SDS011;5573;49.592;8.662;2024-03-08T08:06:30;23.57;;;22.30;;
11039;SDS011;5573;49.592;8.662;2024-03-08T08:08:59;24.10;;;22.80;;
11039;SDS011;5573;49.592;8.662;2024-03-08T08:11:27;25.67;;;24.23;;
11039;SDS011;5573;49.592;8.662;2024-03-08T08:13:56;27.47;;;25.97;;
11039;SDS011;5573;49.592;8.662;2024-03-08T08:16:24;24.83;;;23.53;;
11039;SDS011;5573;49.592;8.662;2024-03-08T08:18:52;25.87;;;24.47;;
11039;SDS011;5573;49.592;8.662;2024-03-08T08:21:21;28.53;;;27.03;;
11039;SDS011;5573;49.592;8.662;2024-03-08T08:23:50;26.27;;;24.80;;
11039;SDS011;5573;49.592;8.662;2024-03-08T08:26:18;27.73;;;26.13;;
11039;SDS011;5573;49.592;8.662;2024-03-08T08:28:45;24.60;;;23.17;;
11039;SDS011;5573;49.592;8.662;2024-03-08T08:31:13;26.13;;;24.77;;
11039;SDS011;5573;49.592;8.662;2024-03-08T08:33:41;28.03;;;26.43;;
11039;SDS011;5573;49.592;8.662;2024-03-08T08:36:12;28.57;;;27.03;;
11039;SDS011;5573;49.592;8.662;2024-03-08T08:38:40;26.63;;;24.97;;
11039;SDS011;5573;49.592;8.662;2024-03-08T08:41:11;30.77;;;29.00;;
11039;SDS011;5573;49.592;8.662;2024-03-08T08:43:40;28.13;;;26.57;;
11039;SDS011;5573;49.592;8.662;2024-03-08T08:46:23;30.57;;;28.57;;
11039;SDS011;5573;49.592;8.662;2024-03-08T08:48:52;28.47;;;26.57;;
11039;SDS011;5573;49.592;8.662;2024-03-08T08:51:20;31.67;;;29.80;;
11039;SDS011;5573;49.592;8.662;2024-03-08T08:53:49;33.07;;;31.20;;
11039;SDS011;5573;49.592;8.662;2024-03-08T08:56:18;31.60;;;29.77;;
11039;SDS011;5573;49.592;8.662;2024-03-08T08:58:46;34.03;;;32.20;;
11039;SDS011;5573;49.592;8.662;2024-03-08T09:01:15;34.07;;;32.23;;
11039;SDS011;5573;49.592;8.662;2024-03-08T09:03:45;33.97;;;32.07;;
11039;SDS011;5573;49.592;8.662;2024-03-08T09:06:13;35.70;;;33.67;;
11039;SDS011;5573;49.592;8.662;2024-03-08T09:08:41;38.23;;;36.20;;
11039;SDS011;5573;49.592;8.662;2024-03-08T09:11:10;39.57;;;37.50;;
11039;SDS011;5573;49.592;8.662;2024-03-08T09:13:39;37.57;;;35.53;;
11039;SDS011;5573;49.592;8.662;2024-03-08T09:16:07;38.10;;;36.07;;
11039;SDS011;5573;49.592;8.662;2024-03-08T09:18:36;36.33;;;34.37;;
11039;SDS011;5573;49.592;8.662;2024-03-08T09:21:04;38.33;;;36.23;;
11039;SDS011;5573;49.592;8.662;2024-03-08T09:23:35;36.83;;;34.83;;
11039;SDS011;5573;49.592;8.662;2024-03-08T09:26:04;36.10;;;33.90;;
11039;SDS011;5573;49.592;8.662;2024-03-08T09:28:45;34.57;;;32.67;;
11039;SDS011;5573;49.592;8.662;2024-03-08T09:31:13;36.50;;;34.50;;
11039;SDS011;5573;49.592;8.662;2024-03-08T09:33:41;36.13;;;34.10;;
11039;SDS011;5573;49.592;8.662;2024-03-08T09:36:09;31.90;;;30.10;;
11039;SDS011;5573;49.592;8.662;2024-03-08T09:38:37;28.37;;;26.90;;
11039;SDS011;5573;49.592;8.662;2024-03-08T09:41:08;32.17;;;30.40;;
11039;SDS011;5573;49.592;8.662;2024-03-08T09:43:36;30.03;;;28.43;;
11039;SDS011;5573;49.592;8.662;2024-03-08T09:46:05;28.57;;;27.03;;
11039;SDS011;5573;49.592;8.662;2024-03-08T09:48:35;29.50;;;27.53;;
11039;SDS011;5573;49.592;8.662;2024-03-08T09:51:03;25.50;;;24.10;;
11039;SDS011;5573;49.592;8.662;2024-03-08T09:53:32;26.53;;;25.03;;
11039;SDS011;5573;49.592;8.662;2024-03-08T09:56:00;25.10;;;23.60;;
11039;SDS011;5573;49.592;8.662;2024-03-08T09:58:30;23.77;;;22.50;;
11039;SDS011;5573;49.592;8.662;2024-03-08T10:01:20;24.37;;;23.07;;
11039;SDS011;5573;49.592;8.662;2024-03-08T10:03:48;26.37;;;24.67;;
11039;SDS011;5573;49.592;8.662;2024-03-08T10:06:16;22.47;;;21.17;;
11039;SDS011;5573;49.592;8.662;2024-03-08T10:08:49;20.37;;;19.23;;
11039;SDS011;5573;49.592;8.662;2024-03-08T10:11:18;23.03;;;21.53;;
11039;SDS011;5573;49.592;8.662;2024-03-08T10:13:46;19.23;;;18.13;;
11039;SDS011;5573;49.592;8.662;2024-03-08T10:16:16;21.10;;;19.80;;
11039;SDS011;5573;49.592;8.662;2024-03-08T10:18:46;19.37;;;18.30;;
11039;SDS011;5573;49.592;8.662;2024-03-08T10:21:14;18.37;;;17.23;;
11039;SDS011;5573;49.592;8.662;2024-03-08T10:23:43;19.93;;;18.63;;
11039;SDS011;5573;49.592;8.662;2024-03-08T10:26:12;19.27;;;18.17;;
11039;SDS011;5573;49.592;8.662;2024-03-08T10:28:42;20.13;;;18.90;;
11039;SDS011;5573;49.592;8.662;2024-03-08T10:31:10;19.43;;;18.33;;
11039;SDS011;5573;49.592;8.662;2024-03-08T10:33:43;21.70;;;20.33;;
11039;SDS011;5573;49.592;8.662;2024-03-08T10:36:13;22.70;;;21.40;;
11039;SDS011;5573;49.592;8.662;2024-03-08T10:38:42;20.93;;;19.67;;
11039;SDS011;5573;49.592;8.662;2024-03-08T10:41:14;22.23;;;20.93;;
11039;SDS011;5573;49.592;8.662;2024-03-08T10:43:48;20.47;;;19.17;;
11039;SDS011;5573;49.592;8.662;2024-03-08T10:46:27;22.07;;;20.77;;
11039;SDS011;5573;49.592;8.662;2024-03-08T10:48:59;20.97;;;19.83;;
11039;SDS011;5573;49.592;8.662;2024-03-08T10:51:32;20.70;;;19.30;;
11039;SDS011;5573;49.592;8.662;2024-03-08T10:53:59;20.33;;;19.17;;
11039;SDS011;5573;49.592;8.662;2024-03-08T10:56:30;22.73;;;21.40;;
11039;SDS011;5573;49.592;8.662;2024-03-08T10:58:58;22.30;;;20.97;;
11039;SDS011;5573;49.592;8.662;2024-03-08T11:01:26;20.33;;;19.13;;
11039;SDS011;5573;49.592;8.662;2024-03-08T11:03:54;21.40;;;20.17;;
11039;SDS011;5573;49.592;8.662;2024-03-08T11:06:23;21.30;;;20.10;;
11039;SDS011;5573;49.592;8.662;2024-03-08T11:08:59;20.97;;;19.67;;
11039;SDS011;5573;49.592;8.662;2024-03-08T11:11:27;19.50;;;18.40;;
11039;SDS011;5573;49.592;8.662;2024-03-08T11:14:00;21.90;;;20.63;;
11039;SDS011;5573;49.592;8.662;2024-03-08T11:16:37;20.38;;;19.10;;
11039;SDS011;5573;49.592;8.662;2024-03-08T11:22:01;19.80;;;18.50;;
11039;SDS011;5573;49.592;8.662;2024-03-08T11:24:37;23.40;;;22.00;;
11039;SDS011;5573;49.592;8.662;2024-03-08T11:27:10;21.20;;;19.92;;
11039;SDS011;5573;49.592;8.662;2024-03-08T11:29:38;23.58;;;22.20;;
11039;SDS011;5573;49.592;8.662;2024-03-08T11:32:07;21.08;;;19.75;;
11039;SDS011;5573;49.592;8.662;2024-03-08T11:34:36;24.02;;;22.25;;
11039;SDS011;5573;49.592;8.662;2024-03-08T11:37:04;23.23;;;21.73;;
11039;SDS011;5573;49.592;8.662;2024-03-08T11:39:35;23.00;;;21.65;;
11039;SDS011;5573;49.592;8.662;2024-03-08T11:42:05;22.52;;;21.33;;
11039;SDS011;5573;49.592;8.662;2024-03-08T11:44:34;22.98;;;21.52;;
11039;SDS011;5573;49.592;8.662;2024-03-08T11:47:02;24.35;;;22.80;;
11039;SDS011;5573;49.592;8.662;2024-03-08T11:49:32;22.02;;;20.77;;
11039;SDS011;5573;49.592;8.662;2024-03-08T11:52:00;28.23;;;26.52;;
11039;SDS011;5573;49.592;8.662;2024-03-08T11:54:29;25.77;;;24.13;;
11039;SDS011;5573;49.592;8.662;2024-03-08T11:56:59;24.80;;;23.27;;
11039;SDS011;5573;49.592;8.662;2024-03-08T11:59:27;28.48;;;26.80;;
11039;SDS011;5573;49.592;8.662;2024-03-08T12:01:59;33.42;;;31.33;;
11039;SDS011;5573;49.592;8.662;2024-03-08T12:04:28;28.83;;;27.13;;
11039;SDS011;5573;49.592;8.662;2024-03-08T12:06:59;31.67;;;29.58;;
11039;SDS011;5573;49.592;8.662;2024-03-08T12:09:27;31.02;;;29.02;;
11039;SDS011;5573;49.592;8.662;2024-03-08T12:11:54;33.42;;;31.35;;
11039;SDS011;5573;49.592;8.662;2024-03-08T12:14:24;38.92;;;36.58;;
11039;SDS011;5573;49.592;8.662;2024-03-08T12:16:52;35.38;;;33.33;;
11039;SDS011;5573;49.592;8.662;2024-03-08T12:19:20;41.30;;;38.88;;
11039;SDS011;5573;49.592;8.662;2024-03-08T12:21:48;39.22;;;36.97;;
11039;SDS011;5573;49.592;8.662;2024-03-08T12:24:16;39.67;;;37.45;;
11039;SDS011;5573;49.592;8.662;2024-03-08T12:26:46;42.42;;;39.97;;
11039;SDS011;5573;49.592;8.662;2024-03-08T12:29:15;47.67;;;45.00;;
11039;SDS011;5573;49.592;8.662;2024-03-08T12:31:47;46.78;;;44.05;;
11039;SDS011;5573;49.592;8.662;2024-03-08T12:34:18;49.08;;;46.30;;
11039;SDS011;5573;49.592;8.662;2024-03-08T12:36:46;45.90;;;43.28;;
11039;SDS011;5573;49.592;8.662;2024-03-08T12:39:17;46.58;;;44.03;;
11039;SDS011;5573;49.592;8.662;2024-03-08T12:41:48;51.00;;;48.10;;
11039;SDS011;5573;49.592;8.662;2024-03-08T12:44:18;54.08;;;51.03;;
11039;SDS011;5573;49.592;8.662;2024-03-08T12:46:49;55.00;;;51.85;;
11039;SDS011;5573;49.592;8.662;2024-03-08T12:49:19;59.38;;;55.88;;
11039;SDS011;5573;49.592;8.662;2024-03-08T12:51:48;50.03;;;47.25;;
11039;SDS011;5573;49.592;8.662;2024-03-08T12:54:19;56.20;;;52.88;;
11039;SDS011;5573;49.592;8.662;2024-03-08T12:56:49;52.65;;;49.67;;
11039;SDS011;5573;49.592;8.662;2024-03-08T12:59:20;53.50;;;50.42;;
11039;SDS011;5573;49.592;8.662;2024-03-08T13:01:50;57.22;;;53.88;;
11039;SDS011;5573;49.592;8.662;2024-03-08T13:04:20;58.15;;;54.60;;
11039;SDS011;5573;49.592;8.662;2024-03-08T13:06:48;55.75;;;52.50;;
11039;SDS011;5573;49.592;8.662;2024-03-08T13:09:20;52.08;;;49.20;;
11039;SDS011;5573;49.592;8.662;2024-03-08T13:11:50;53.28;;;50.25;;
11039;SDS011;5573;49.592;8.662;2024-03-08T13:14:20;55.63;;;52.53;;
11039;SDS011;5573;49.592;8.662;2024-03-08T13:16:49;48.22;;;45.50;;
11039;SDS011;5573;49.592;8.662;2024-03-08T13:19:18;51.72;;;48.92;;
11039;SDS011;5573;49.592;8.662;2024-03-08T13:21:48;50.85;;;48.05;;
11039;SDS011;5573;49.592;8.662;2024-03-08T13:24:16;56.33;;;53.10;;
11039;SDS011;5573;49.592;8.662;2024-03-08T13:26:46;55.17;;;52.08;;
11039;SDS011;5573;49.592;8.662;2024-03-08T13:29:14;50.42;;;47.70;;
11039;SDS011;5573;49.592;8.662;2024-03-08T13:31:45;50.45;;;47.65;;
11039;SDS011;5573;49.592;8.662;2024-03-08T13:34:14;54.45;;;51.42;;
11039;SDS011;5573;49.592;8.662;2024-03-08T13:36:42;54.63;;;51.67;;
11039;SDS011;5573;49.592;8.662;2024-03-08T13:39:11;53.78;;;50.67;;
11039;SDS011;5573;49.592;8.662;2024-03-08T13:41:42;53.88;;;50.95;;
11039;SDS011;5573;49.592;8.662;2024-03-08T13:44:11;55.33;;;52.25;;
11039;SDS011;5573;49.592;8.662;2024-03-08T13:46:39;53.45;;;50.45;;
11039;SDS011;5573;49.592;8.662;2024-03-08T13:49:08;55.03;;;51.92;;
11039;SDS011;5573;49.592;8.662;2024-03-08T13:51:39;54.30;;;51.22;;
11039;SDS011;5573;49.592;8.662;2024-03-08T13:54:06;54.33;;;51.38;;
11039;SDS011;5573;49.592;8.662;2024-03-08T13:56:34;50.90;;;48.05;;
11039;SDS011;5573;49.592;8.662;2024-03-08T13:59:03;54.33;;;51.33;;
11039;SDS011;5573;49.592;8.662;2024-03-08T14:01:31;56.63;;;53.55;;
11039;SDS011;5573;49.592;8.662;2024-03-08T14:04:02;54.60;;;51.55;;
11039;SDS011;5573;49.592;8.662;2024-03-08T14:06:30;55.20;;;52.20;;
11039;SDS011;5573;49.592;8.662;2024-03-08T14:08:59;51.00;;;48.10;;
11039;SDS011;5573;49.592;8.662;2024-03-08T14:11:28;58.47;;;55.17;;
11039;SDS011;5573;49.592;8.662;2024-03-08T14:13:56;58.45;;;55.28;;
11039;SDS011;5573;49.592;8.662;2024-03-08T14:16:23;62.45;;;58.97;;
11039;SDS011;5573;49.592;8.662;2024-03-08T14:18:52;61.67;;;58.25;;
11039;SDS011;5573;49.592;8.662;2024-03-08T14:21:20;63.63;;;60.05;;
11039;SDS011;5573;49.592;8.662;2024-03-08T14:23:48;57.97;;;54.78;;
11039;SDS011;5573;49.592;8.662;2024-03-08T14:26:18;65.88;;;61.88;;
11039;SDS011;5573;49.592;8.662;2024-03-08T14:28:47;59.75;;;56.38;;
11039;SDS011;5573;49.592;8.662;2024-03-08T14:31:18;61.88;;;58.40;;
11039;SDS011;5573;49.592;8.662;2024-03-08T14:33:46;59.00;;;55.78;;
11039;SDS011;5573;49.592;8.662;2024-03-08T14:36:15;67.03;;;63.25;;
11039;SDS011;5573;49.592;8.662;2024-03-08T14:38:44;61.28;;;57.85;;
11039;SDS011;5573;49.592;8.662;2024-03-08T14:41:13;64.28;;;60.63;;
11039;SDS011;5573;49.592;8.662;2024-03-08T14:43:43;65.40;;;61.80;;
11039;SDS011;5573;49.592;8.662;2024-03-08T14:46:11;55.05;;;51.85;;